Time;durP1;ratioP1;P1;durP2;ratioP2;P2;SDS_P1;SDS_P2;PMS_P1;PMS_P2;Temp;Humidity;BMP_temperature;BMP_pressure;BME280_temperature;BME280_humidity;BME280_pressure;Samples;Min_cycle;Max_cycle;Signal;HPM_P1;HPM_P2
2022/05/01 00:01:00;;;;;;;6.00;3.38;;;;;;;8.66;98.83;95375.94;5077157;28;20047;-66
2022/05/01 00:03:36;;;;;;;5.63;3.58;;;;;;;8.66;99.26;95380.31;5075873;28;20079;-66
2022/05/01 00:06:07;;;;;;;5.40;3.75;;;;;;;8.60;99.30;95377.50;5064348;28;20044;-66
2022/05/01 00:08:36;;;;;;;7.57;4.43;;;;;;;8.62;99.76;95377.31;5067453;28;20040;-66
2022/05/01 00:11:03;;;;;;;6.25;3.70;;;;;;;8.62;99.90;95382.50;5051880;28;20077;-67
2022/05/01 00:13:40;;;;;;;6.45;3.67;;;;;;;8.65;100.00;95402.09;5077345;28;20051;-67
2022/05/01 00:16:08;;;;;;;5.35;3.78;;;;;;;8.65;100.00;95402.09;5069457;28;20032;-67
2022/05/01 00:18:35;;;;;;;6.00;3.58;;;;;;;8.61;100.00;95401.69;5086052;28;20097;-67
2022/05/01 00:21:03;;;;;;;8.98;4.82;;;;;;;8.63;100.00;95406.69;5074942;28;20102;-68
2022/05/01 00:23:30;;;;;;;6.13;4.22;;;;;;;8.64;100.00;95410.88;5081421;28;20052;-67
2022/05/01 00:25:59;;;;;;;7.85;5.07;;;;;;;8.62;100.00;95411.06;5064297;28;20052;-67
2022/05/01 00:28:26;;;;;;;8.38;5.05;;;;;;;8.63;100.00;95398.91;5060845;28;20059;-67
2022/05/01 00:30:53;;;;;;;6.97;4.68;;;;;;;8.58;100.00;95397.69;5055610;28;20473;-67
2022/05/01 00:38:51;;;;;;;9.90;6.05;;;;;;;8.54;100.00;95370.56;5075744;28;20076;-67
2022/05/01 00:41:17;;;;;;;11.13;5.80;;;;;;;8.46;100.00;95365.56;5063325;28;20048;-68
2022/05/01 00:43:57;;;;;;;7.78;5.35;;;;;;;8.51;100.00;95370.97;5048014;28;20032;-67
2022/05/01 00:46:24;;;;;;;11.20;5.40;;;;;;;8.56;100.00;95378.94;5046201;28;20041;-67
2022/05/01 00:48:52;;;;;;;8.50;5.55;;;;;;;8.41;100.00;95357.59;5045371;28;20037;-67
2022/05/01 00:51:20;;;;;;;10.60;5.75;;;;;;;8.51;100.00;95364.97;5045541;28;20191;-67
2022/05/01 01:03:44;;;;;;;10.75;6.20;;;;;;;8.47;100.00;95351.59;5061548;28;20052;-67
2022/05/01 01:06:11;;;;;;;9.88;5.95;;;;;;;8.44;100.00;95359.78;5059464;28;20052;-67
2022/05/01 01:08:39;;;;;;;10.88;5.68;;;;;;;8.50;100.00;95347.78;5045013;28;20068;-68
2022/05/01 01:11:06;;;;;;;10.45;5.55;;;;;;;8.51;100.00;95350.19;5043244;28;20048;-67
2022/05/01 01:13:33;;;;;;;11.32;6.07;;;;;;;8.53;100.00;95348.19;5062972;28;20056;-67
2022/05/01 01:16:00;;;;;;;11.98;6.60;;;;;;;8.43;100.00;95332.25;5059504;28;20585;-68
2022/05/01 01:18:27;;;;;;;10.95;6.60;;;;;;;8.52;100.00;95336.22;5061811;28;20533;-67
2022/05/01 01:20:54;;;;;;;11.27;5.93;;;;;;;8.46;100.00;95326.63;5084363;28;20428;-67
2022/05/01 01:23:22;;;;;;;11.52;6.68;;;;;;;8.54;100.00;95344.59;5076440;28;20581;-67
2022/05/01 01:25:49;;;;;;;14.95;6.68;;;;;;;8.51;100.00;95334.59;5065566;28;20049;-67
2022/05/01 01:28:18;;;;;;;13.30;5.95;;;;;;;8.55;100.00;95346.19;5050486;28;20045;-67
2022/05/01 01:33:53;;;;;;;8.57;5.70;;;;;;;8.52;100.00;95341.41;5034217;28;20055;-67
2022/05/01 01:36:21;;;;;;;13.50;6.55;;;;;;;8.48;100.00;95339.41;5010610;28;20054;-67
2022/05/01 01:38:49;;;;;;;10.18;5.95;;;;;;;8.45;100.00;95329.47;5063013;28;20082;-67
2022/05/01 01:41:22;;;;;;;10.98;6.20;;;;;;;8.50;100.00;95338.22;5070703;28;20045;-68
2022/05/01 01:43:49;;;;;;;10.13;5.95;;;;;;;8.44;100.00;95333.84;5045073;28;20800;-68
2022/05/01 01:46:17;;;;;;;11.57;6.30;;;;;;;8.39;100.00;95334.44;5059323;28;20802;-67
2022/05/01 01:48:47;;;;;;;10.20;6.55;;;;;;;8.42;100.00;95330.66;5049843;28;20045;-67
2022/05/01 01:51:14;;;;;;;9.98;6.30;;;;;;;8.43;100.00;95342.63;5072062;28;20037;-68
2022/05/01 01:53:42;;;;;;;12.70;6.43;;;;;;;8.42;100.00;95341.03;5049265;28;20119;-67
2022/05/01 01:56:11;;;;;;;11.90;7.07;;;;;;;8.43;100.00;95337.44;5060683;28;20728;-67
2022/05/01 01:58:39;;;;;;;14.18;7.38;;;;;;;8.43;100.00;95337.44;5080597;28;20032;-67
2022/05/01 02:01:08;;;;;;;10.38;6.75;;;;;;;8.41;100.00;95336.81;5064360;28;20040;-67
2022/05/01 02:03:35;;;;;;;10.25;6.30;;;;;;;8.41;100.00;95335.03;5064110;28;20044;-67
2022/05/01 02:06:06;;;;;;;13.80;7.78;;;;;;;8.38;100.00;95329.44;5064988;28;20040;-67
2022/05/01 02:08:34;;;;;;;13.38;7.82;;;;;;;8.34;100.00;95328.25;5061990;28;20045;-67
2022/05/01 02:11:04;;;;;;;11.35;7.70;;;;;;;8.36;100.00;95326.25;5076300;28;20045;-66
2022/05/01 02:13:33;;;;;;;11.30;7.40;;;;;;;8.32;100.00;95325.06;5061558;28;20070;-68
2022/05/01 02:16:00;;;;;;;11.90;7.85;;;;;;;8.28;100.00;95318.69;5060521;28;20059;-68
2022/05/01 02:18:27;;;;;;;12.27;7.90;;;;;;;8.29;100.00;95330.66;5061641;28;20068;-67
2022/05/01 02:23:40;;;;;;;13.15;8.43;;;;;;;8.18;100.00;95330.28;5064171;28;20510;-67
2022/05/01 02:26:07;;;;;;;12.55;7.60;;;;;;;8.20;100.00;95333.47;5063769;28;20045;-67
2022/05/01 02:28:34;;;;;;;12.80;8.15;;;;;;;8.22;100.00;95336.66;5063813;28;20086;-67
2022/05/01 02:31:01;;;;;;;11.85;7.60;;;;;;;8.19;100.00;95337.09;5074413;28;20048;-67
2022/05/01 02:33:28;;;;;;;11.95;7.22;;;;;;;8.04;100.00;95318.34;5073053;28;20045;-67
2022/05/01 02:35:55;;;;;;;15.15;8.07;;;;;;;8.11;100.00;95344.28;5063801;28;20063;-67
2022/05/01 02:38:22;;;;;;;12.20;7.68;;;;;;;8.07;100.00;95338.69;5083609;28;20044;-67
2022/05/01 02:40:49;;;;;;;15.05;7.88;;;;;;;8.01;100.00;95335.13;5060634;28;20041;-65
2022/05/01 02:43:16;;;;;;;13.00;7.15;;;;;;;7.99;100.00;95337.09;5052145;28;20044;-66
2022/05/01 02:45:42;;;;;;;12.27;7.97;;;;;;;7.97;100.00;95333.13;5052438;28;20466;-66
2022/05/01 02:48:09;;;;;;;13.43;7.03;;;;;;;7.87;100.00;95332.72;5044454;28;20794;-67
2022/05/01 02:50:36;;;;;;;12.30;7.43;;;;;;;7.83;100.00;95327.97;5043050;28;20106;-67
2022/05/01 02:53:04;;;;;;;15.02;8.48;;;;;;;7.77;100.00;95339.13;5046621;28;20048;-67
2022/05/01 02:55:32;;;;;;;13.45;7.20;;;;;;;7.67;100.00;95341.34;5059104;28;20155;-66
2022/05/01 02:57:59;;;;;;;12.50;7.47;;;;;;;7.58;100.00;95320.00;5075843;28;20528;-67
2022/05/01 03:00:26;;;;;;;12.95;8.57;;;;;;;7.59;100.00;95326.75;5084230;28;20040;-67
2022/05/01 03:02:56;;;;;;;12.63;7.22;;;;;;;7.50;100.00;95327.16;5062389;28;20036;-67
2022/05/01 03:05:26;;;;;;;13.50;8.00;;;;;;;7.45;100.00;95325.97;5038877;28;20051;-67
2022/05/01 03:07:55;;;;;;;13.55;7.97;;;;;;;7.39;100.00;95331.16;5065669;28;20050;-67
2022/05/01 03:10:23;;;;;;;11.85;7.43;;;;;;;7.36;100.00;95324.56;5068673;28;20051;-67
2022/05/01 03:12:50;;;;;;;16.77;9.02;;;;;;;7.28;100.00;95322.16;5048878;28;20051;-68
2022/05/01 03:15:17;;;;;;;15.80;10.00;;;;;;;7.21;100.00;95318.78;5076635;28;20143;-68
2022/05/01 03:23:15;;;;;;;16.67;8.98;;;;;;;7.15;100.00;95332.50;5061845;28;20094;-66
2022/05/01 03:25:42;;;;;;;13.48;7.82;;;;;;;7.13;100.00;95330.13;5063103;28;20781;-67
2022/05/01 03:28:09;;;;;;;17.67;8.25;;;;;;;7.15;100.00;95329.91;5092331;28;20051;-67
2022/05/01 03:30:36;;;;;;;13.45;7.90;;;;;;;7.12;100.00;95335.50;5049912;28;20048;-67
2022/05/01 03:33:05;;;;;;;14.43;8.80;;;;;;;7.15;100.00;95340.25;5067074;28;20037;-67
2022/05/01 03:35:35;;;;;;;13.98;8.68;;;;;;;7.10;100.00;95337.50;5053675;28;20561;-67
2022/05/01 03:38:09;;;;;;;15.10;8.93;;;;;;;7.13;100.00;95330.13;5065226;28;20059;-67
2022/05/01 03:40:36;;;;;;;15.68;9.75;;;;;;;7.25;100.00;95341.47;5063750;28;20533;-67
2022/05/01 03:43:04;;;;;;;13.23;8.32;;;;;;;7.27;100.00;95344.69;5047786;28;20044;-67
2022/05/01 03:45:31;;;;;;;12.75;8.45;;;;;;;7.30;100.00;95343.50;5059755;28;20090;-67
2022/05/01 03:47:58;;;;;;;14.45;8.57;;;;;;;7.34;100.00;95342.09;5082875;28;20119;-67
2022/05/01 03:50:26;;;;;;;13.55;8.30;;;;;;;7.42;100.00;95347.09;5067846;28;20716;-67
2022/05/01 03:52:52;;;;;;;13.23;8.05;;;;;;;7.48;100.00;95350.69;5075957;28;20048;-67
2022/05/01 03:55:19;;;;;;;14.95;9.40;;;;;;;7.52;100.00;95351.09;5059953;28;20041;-67
2022/05/01 03:57:46;;;;;;;14.77;8.55;;;;;;;7.56;100.00;95360.06;5070927;28;20036;-67
2022/05/01 04:00:18;;;;;;;12.38;8.20;;;;;;;7.63;100.00;95366.03;5056119;28;20072;-67
2022/05/01 04:02:45;;;;;;;12.05;7.72;;;;;;;7.66;100.00;95357.88;5065811;28;20098;-67
2022/05/01 04:05:14;;;;;;;15.23;9.50;;;;;;;7.73;100.00;95369.03;5080719;28;20612;-67
2022/05/01 04:07:42;;;;;;;12.45;7.78;;;;;;;7.80;100.00;95359.47;5068489;28;20068;-67
2022/05/01 04:10:11;;;;;;;18.70;8.85;;;;;;;7.88;100.00;95373.22;5051402;28;20632;-67
2022/05/01 04:12:40;;;;;;;15.55;8.68;;;;;;;7.90;100.00;95369.44;5061082;28;20044;-67
2022/05/01 04:15:07;;;;;;;15.77;8.32;;;;;;;8.03;100.00;95373.81;5060944;28;20041;-67
2022/05/01 04:17:39;;;;;;;16.85;9.68;;;;;;;8.13;100.00;95386.38;5063516;28;20044;-67
2022/05/01 04:20:10;;;;;;;16.02;9.27;;;;;;;8.26;100.00;95381.16;5059967;28;20049;-67
2022/05/01 04:22:44;;;;;;;15.80;10.02;;;;;;;8.35;100.00;95381.75;5059895;28;20703;-67
2022/05/01 04:25:22;;;;;;;16.50;7.85;;;;;;;8.49;100.00;95385.94;5055969;28;20526;-66
2022/05/01 04:27:56;;;;;;;15.07;9.38;;;;;;;8.61;100.00;95381.72;5063548;28;20087;-67
2022/05/01 04:30:25;;;;;;;13.63;8.15;;;;;;;8.65;100.00;95376.13;5070014;28;20906;-67
2022/05/01 04:32:59;;;;;;;15.77;8.75;;;;;;;8.82;100.00;95382.44;5057764;28;20036;-67
2022/05/01 04:35:29;;;;;;;16.30;9.40;;;;;;;8.88;100.00;95371.25;5055986;28;20138;-66
2022/05/01 04:38:07;;;;;;;15.82;9.63;;;;;;;9.06;100.00;95377.56;5060577;28;20056;-67
2022/05/01 04:40:36;;;;;;;18.98;9.27;;;;;;;9.15;100.00;95381.50;5077081;28;20913;-67
2022/05/01 04:43:03;;;;;;;15.18;8.27;;;;;;;9.32;100.00;95377.41;5044812;28;20107;-67
2022/05/01 04:45:31;;;;;;;16.88;9.40;;;;;;;9.46;100.00;95374.72;5068614;28;20037;-67
2022/05/01 04:47:58;;;;;;;14.63;7.90;;;;;;;9.60;100.00;95381.44;5039581;28;20661;-67
2022/05/01 04:50:26;;;;;;;13.70;7.70;;;;;;;9.73;100.00;95383.13;5068047;28;20039;-67
2022/05/01 04:52:57;;;;;;;16.15;8.07;;;;;;;9.82;100.00;95383.69;5061853;28;20044;-71
2022/05/01 04:55:24;;;;;;;12.55;7.28;;;;;;;9.89;100.00;95376.63;5056176;28;20047;-67
2022/05/01 04:57:50;;;;;;;11.93;7.13;;;;;;;9.97;100.00;95372.94;5069764;28;20044;-67
2022/05/01 05:00:19;;;;;;;13.80;7.30;;;;;;;10.09;100.00;95364.22;5057048;28;20044;-67
2022/05/01 05:02:50;;;;;;;13.32;7.72;;;;;;;10.19;100.00;95355.13;5061569;28;20048;-67
2022/05/01 05:05:18;;;;;;;13.43;7.03;;;;;;;10.37;100.00;95362.19;5080069;28;20476;-68
2022/05/01 05:07:46;;;;;;;11.45;7.40;;;;;;;10.58;100.00;95368.78;5056135;28;20068;-67
2022/05/01 05:10:14;;;;;;;11.80;7.63;;;;;;;10.64;100.00;95357.47;5070337;28;20509;-68
2022/05/01 05:12:44;;;;;;;10.95;7.47;;;;;;;10.83;100.00;95366.88;5068625;28;20052;-68
2022/05/01 05:15:14;;;;;;;12.00;7.65;;;;;;;10.99;100.00;95370.69;5077689;28;20048;-68
2022/05/01 05:17:43;;;;;;;9.68;6.53;;;;;;;11.14;100.00;95372.91;5055182;28;20598;-67
2022/05/01 05:20:12;;;;;;;9.85;6.60;;;;;;;11.28;100.00;95373.53;5037593;28;20055;-67
2022/05/01 05:22:42;;;;;;;11.70;6.40;;;;;;;11.39;100.00;95375.38;5062342;28;20484;-67
2022/05/01 05:25:11;;;;;;;10.75;6.97;;;;;;;11.50;99.72;95376.44;5080996;28;20040;-67
2022/05/01 05:27:38;;;;;;;11.10;6.65;;;;;;;11.53;98.88;95378.59;5057361;28;20037;-67
2022/05/01 05:30:06;;;;;;;10.23;6.07;;;;;;;11.54;97.90;95388.03;5065455;28;20549;-67
2022/05/01 05:32:35;;;;;;;10.13;7.35;;;;;;;11.56;98.36;95391.22;5068401;28;20740;-67
2022/05/01 05:35:04;;;;;;;9.35;5.43;;;;;;;11.69;98.14;95384.22;5064962;28;20033;-69
2022/05/01 05:37:32;;;;;;;12.77;6.78;;;;;;;11.70;98.40;95380.56;5067918;28;20131;-67
2022/05/01 05:39:59;;;;;;;10.18;6.82;;;;;;;11.73;97.49;95375.69;5073921;28;20044;-67
2022/05/01 05:42:26;;;;;;;12.55;8.38;;;;;;;11.87;97.25;95386.75;5065533;28;20147;-67
2022/05/01 05:44:52;;;;;;;13.02;8.00;;;;;;;11.93;96.85;95385.84;5078073;28;20042;-67
2022/05/01 05:47:19;;;;;;;10.27;6.80;;;;;;;12.00;96.46;95378.72;5059414;28;20036;-68
2022/05/01 05:49:47;;;;;;;11.63;7.75;;;;;;;12.07;95.92;95367.38;5060374;28;20041;-67
2022/05/01 05:52:19;;;;;;;12.88;8.48;;;;;;;12.31;94.62;95389.84;5059591;28;20057;-67
2022/05/01 05:54:46;;;;;;;11.13;7.45;;;;;;;12.50;93.70;95387.13;5067122;28;20044;-68
2022/05/01 05:57:13;;;;;;;20.00;10.25;;;;;;;12.58;92.65;95381.53;5065895;28;20040;-68
2022/05/01 05:59:40;;;;;;;12.35;7.97;;;;;;;12.60;91.45;95389.94;5077947;28;20052;-68
2022/05/01 06:02:07;;;;;;;17.58;7.55;;;;;;;12.59;91.51;95388.38;5063170;28;20044;-68
2022/05/01 06:04:34;;;;;;;11.82;7.35;;;;;;;12.62;91.19;95387.88;5078393;28;20604;-68
2022/05/01 06:07:02;;;;;;;10.55;7.43;;;;;;;12.66;90.22;95394.25;5047982;28;20068;-68
2022/05/01 06:09:29;;;;;;;13.10;7.10;;;;;;;12.77;89.88;95390.81;5051233;28;20044;-69
2022/05/01 06:11:56;;;;;;;17.33;8.02;;;;;;;12.89;89.89;95382.97;5077120;28;20040;-68
2022/05/01 06:14:23;;;;;;;10.15;7.05;;;;;;;13.11;90.13;95390.97;5082044;28;20036;-66
2022/05/01 06:16:50;;;;;;;14.13;8.85;;;;;;;13.29;87.26;95394.41;5077370;28;20036;-67
2022/05/01 06:19:17;;;;;;;19.33;11.77;;;;;;;13.33;86.48;95392.97;5081052;28;20052;-67
2022/05/01 06:21:43;;;;;;;14.18;8.25;;;;;;;13.44;86.31;95394.72;5069785;28;20520;-66
2022/05/01 06:24:10;;;;;;;12.60;8.90;;;;;;;13.58;87.04;95395.25;5061526;28;20040;-68
2022/05/01 06:26:37;;;;;;;11.70;7.85;;;;;;;13.75;86.02;95395.25;5049684;28;20096;-67
2022/05/01 06:29:04;;;;;;;10.27;6.63;;;;;;;13.85;84.03;95400.66;5047631;28;20049;-67
2022/05/01 06:31:31;;;;;;;10.30;6.63;;;;;;;13.93;84.60;95402.88;5089637;28;20540;-67
2022/05/01 06:33:58;;;;;;;8.80;6.22;;;;;;;14.12;84.16;95400.03;5064377;28;20045;-67
2022/05/01 06:36:26;;;;;;;9.38;5.75;;;;;;;14.15;83.36;95405.59;5050555;28;20091;-67
2022/05/01 06:38:52;;;;;;;9.27;6.43;;;;;;;14.23;83.05;95409.63;5078151;28;20048;-68
2022/05/01 06:41:19;;;;;;;10.43;5.90;;;;;;;14.39;82.51;95402.00;5043221;28;20037;-67
2022/05/01 06:43:46;;;;;;;11.23;6.57;;;;;;;14.51;82.38;95394.81;5058628;28;20047;-68
2022/05/01 06:46:13;;;;;;;9.18;6.88;;;;;;;14.51;81.84;95407.91;5070787;28;20056;-67
2022/05/01 06:48:40;;;;;;;10.02;6.50;;;;;;;14.55;81.10;95403.81;5049202;28;20670;-67
2022/05/01 06:51:07;;;;;;;10.82;7.50;;;;;;;14.52;80.00;95399.03;5077968;28;20067;-68
2022/05/01 06:53:34;;;;;;;11.18;6.90;;;;;;;14.53;77.80;95405.84;5075639;28;20040;-67
2022/05/01 06:56:01;;;;;;;10.70;7.53;;;;;;;14.56;77.80;95394.09;5062837;28;20105;-67
2022/05/01 06:58:28;;;;;;;8.85;5.35;;;;;;;14.68;77.18;95398.22;5062883;28;20544;-68
2022/05/01 07:00:55;;;;;;;12.23;8.48;;;;;;;14.82;77.92;95405.72;5065250;28;20071;-68
2022/05/01 07:03:22;;;;;;;10.93;7.38;;;;;;;15.04;77.98;95401.28;5080094;28;20097;-68
2022/05/01 07:05:49;;;;;;;6.43;5.05;;;;;;;15.14;74.80;95405.06;5081024;28;20036;-68
2022/05/01 07:08:16;;;;;;;7.93;5.57;;;;;;;15.16;74.08;95392.50;5065124;28;20046;-67
2022/05/01 07:10:44;;;;;;;9.38;5.57;;;;;;;15.27;73.32;95394.22;5082443;28;20441;-68
2022/05/01 07:13:11;;;;;;;8.07;5.45;;;;;;;15.31;74.58;95386.63;5065102;28;20048;-68
2022/05/01 07:15:38;;;;;;;7.22;5.10;;;;;;;15.51;72.93;95399.19;5076932;28;20533;-68
2022/05/01 07:18:06;;;;;;;7.45;4.97;;;;;;;15.55;71.90;95389.75;5073529;28;20051;-68
2022/05/01 07:20:35;;;;;;;8.18;5.60;;;;;;;15.69;69.48;95396.19;5068890;28;20040;-67
2022/05/01 07:23:03;;;;;;;6.95;5.15;;;;;;;15.80;69.49;95397.88;5054522;28;20051;-67
2022/05/01 07:25:30;;;;;;;6.95;4.97;;;;;;;15.95;68.29;95396.44;5064179;28;20045;-68
2022/05/01 07:27:57;;;;;;;8.00;4.97;;;;;;;16.15;67.17;95396.59;5072738;28;20508;-68
2022/05/01 07:30:24;;;;;;;8.23;4.88;;;;;;;16.21;65.66;95392.97;5081027;28;20067;-68
2022/05/01 07:32:51;;;;;;;9.55;6.05;;;;;;;16.18;65.82;95398.72;5069645;28;20044;-68
2022/05/01 07:35:18;;;;;;;7.68;5.22;;;;;;;16.05;66.21;95396.53;5060237;28;20037;-68
2022/05/01 07:37:45;;;;;;;6.18;4.50;;;;;;;16.14;67.33;95402.09;5072045;28;20059;-68
2022/05/01 07:40:12;;;;;;;12.52;5.05;;;;;;;16.23;64.55;95406.63;5058517;28;20532;-68
2022/05/01 07:42:40;;;;;;;7.43;5.35;;;;;;;16.48;65.24;95394.72;5072531;28;20052;-68
2022/05/01 07:45:08;;;;;;;5.68;4.18;;;;;;;16.67;62.40;95395.06;5071728;28;20044;-68
2022/05/01 07:47:36;;;;;;;7.57;4.40;;;;;;;16.55;60.19;95397.91;5067272;28;20049;-68
2022/05/01 07:50:04;;;;;;;7.57;5.07;;;;;;;16.77;60.53;95395.13;5057534;28;20029;-68
2022/05/01 07:52:31;;;;;;;6.78;4.22;;;;;;;16.96;59.19;95392.88;5065642;28;20052;-68
2022/05/01 07:54:58;;;;;;;5.43;3.95;;;;;;;17.11;60.76;95394.00;5069027;28;20051;-69
2022/05/01 07:57:26;;;;;;;5.55;3.55;;;;;;;17.18;59.31;95384.00;5055401;28;20060;-68
2022/05/01 07:59:54;;;;;;;6.28;4.28;;;;;;;17.29;57.98;95385.63;5078259;28;20941;-69
2022/05/01 08:02:21;;;;;;;7.53;4.35;;;;;;;17.02;57.23;95385.00;5070955;28;20140;-68
2022/05/01 08:04:49;;;;;;;3.83;3.10;;;;;;;17.24;57.35;95382.19;5063097;28;20052;-69
2022/05/01 08:07:16;;;;;;;4.13;2.97;;;;;;;17.39;58.00;95385.66;5063313;28;20975;-69
2022/05/01 08:09:43;;;;;;;8.05;4.10;;;;;;;17.55;54.85;95372.50;5062097;28;20059;-67
2022/05/01 08:12:11;;;;;;;6.53;3.75;;;;;;;17.75;55.84;95377.00;5068734;28;20052;-68
2022/05/01 08:14:45;;;;;;;5.20;3.88;;;;;;;17.87;51.41;95382.06;5064609;28;20071;-68
2022/05/01 08:17:12;;;;;;;6.82;4.47;;;;;;;17.83;53.18;95383.59;5075111;28;20043;-68
2022/05/01 08:22:26;;;;;;;6.18;3.67;;;;;;;18.18;52.63;95374.91;5048600;28;20944;-67
2022/05/01 08:24:54;;;;;;;4.97;3.38;;;;;;;18.33;51.58;95377.53;5075384;28;20055;-67
2022/05/01 08:27:21;;;;;;;4.53;2.75;;;;;;;18.47;50.05;95372.47;5042996;28;20051;-67
2022/05/01 08:29:47;;;;;;;4.03;3.10;;;;;;;18.63;49.55;95369.81;5068152;28;20830;-67
2022/05/01 08:32:15;;;;;;;4.78;2.83;;;;;;;18.73;47.83;95367.16;5067736;28;20106;-67
2022/05/01 08:34:42;;;;;;;5.68;2.65;;;;;;;18.73;44.83;95369.81;5064812;28;20122;-67
2022/05/01 08:37:11;;;;;;;3.00;2.35;;;;;;;18.83;46.26;95359.22;5080501;28;20088;-67
2022/05/01 08:39:38;;;;;;;3.63;2.50;;;;;;;18.52;44.73;95364.56;5063083;28;20037;-67
2022/05/01 08:42:06;;;;;;;3.72;2.83;;;;;;;18.86;46.43;95357.91;5045026;28;20044;-67
2022/05/01 08:44:37;;;;;;;4.80;2.60;;;;;;;18.98;45.41;95353.09;5070718;28;20036;-67
2022/05/01 08:47:18;;;;;;;3.70;2.63;;;;;;;19.18;45.20;95360.13;5051927;28;20045;-67
2022/05/01 08:49:46;;;;;;;3.67;2.63;;;;;;;19.36;42.63;95350.00;5071770;28;20059;-70
2022/05/01 08:52:14;;;;;;;3.45;2.17;;;;;;;19.31;41.19;95352.69;5064974;28;20045;-68
2022/05/01 08:54:44;;;;;;;3.08;2.38;;;;;;;19.47;42.00;95346.25;5057075;28;20045;-68
2022/05/01 08:57:12;;;;;;;2.53;1.92;;;;;;;19.54;41.63;95346.72;5062222;28;20059;-68
2022/05/01 08:59:40;;;;;;;3.70;1.90;;;;;;;19.37;37.78;95341.00;5079519;28;20051;-68
2022/05/01 09:02:10;;;;;;;3.38;2.13;;;;;;;19.45;38.86;95348.38;5065313;28;20040;-68
2022/05/01 09:04:38;;;;;;;6.43;2.40;;;;;;;19.66;39.23;95339.25;5078312;28;20097;-68
2022/05/01 09:07:05;;;;;;;3.40;2.08;;;;;;;19.87;39.37;95344.38;5068078;28;20109;-68
2022/05/01 09:09:32;;;;;;;2.35;1.85;;;;;;;20.09;38.67;95340.50;5069019;28;20052;-68
2022/05/01 09:14:44;;;;;;;8.90;2.75;;;;;;;20.40;37.93;95330.41;5049732;28;20041;-68
2022/05/01 09:17:20;;;;;;;3.60;1.95;;;;;;;19.98;36.49;95337.94;5078604;28;20085;-68
2022/05/01 09:19:50;;;;;;;4.22;1.75;;;;;;;20.00;36.97;95327.09;5044513;28;20056;-68
2022/05/01 09:22:19;;;;;;;2.42;1.70;;;;;;;20.28;38.48;95328.16;5044026;28;20041;-68
2022/05/01 09:24:52;;;;;;;6.78;2.08;;;;;;;20.59;36.58;95325.19;5074401;28;20480;-68
2022/05/01 09:27:29;;;;;;;3.40;1.55;;;;;;;20.71;34.65;95320.31;5046305;28;20045;-68
2022/05/01 09:30:14;;;;;;;2.28;1.70;;;;;;;20.95;33.46;95314.97;5059760;28;20056;-68
2022/05/01 09:32:41;;;;;;;;;;;;;;;21.07;35.56;95322.50;5070748;28;20052;-67
2022/05/01 09:35:25;;;;;;;2.17;1.67;;;;;;;21.29;32.76;95318.53;5065093;28;20055;-67
2022/05/01 09:38:25;;;;;;;1.67;1.40;;;;;;;21.32;33.30;95312.63;5063810;28;20049;-67
2022/05/01 09:40:58;;;;;;;4.25;1.42;;;;;;;21.51;32.82;95302.84;5094308;28;20048;-67
2022/05/01 09:43:34;;;;;;;2.33;1.77;;;;;;;21.65;32.29;95299.47;5049346;28;20036;-67
2022/05/01 09:46:27;;;;;;;1.77;1.35;;;;;;;21.54;32.40;95299.63;5066203;28;20045;-66
2022/05/01 09:49:03;;;;;;;5.60;1.52;;;;;;;21.26;33.31;95297.88;5023438;28;20080;-68
2022/05/01 09:51:32;;;;;;;5.82;2.35;;;;;;;21.37;32.44;95292.16;5080077;28;20086;-69
2022/05/01 09:54:01;;;;;;;6.97;2.17;;;;;;;21.49;33.79;95291.75;5084222;28;20048;-68
2022/05/01 09:56:42;;;;;;;8.48;4.53;;;;;;;21.76;33.23;95279.66;5062471;28;20894;-68
2022/05/01 09:59:09;;;;;;;6.28;3.20;;;;;;;22.19;32.45;95298.00;5078163;28;20056;-67
2022/05/01 10:01:36;;;;;;;3.08;1.70;;;;;;;22.44;33.26;95285.41;5058310;28;20037;-68
2022/05/01 10:04:04;;;;;;;3.50;2.45;;;;;;;22.66;32.28;95285.47;5041162;28;20063;-69
2022/05/01 10:06:32;;;;;;;5.78;2.47;;;;;;;22.88;31.12;95270.69;5055824;28;20054;-69
2022/05/01 10:09:01;;;;;;;2.53;1.75;;;;;;;23.07;31.38;95263.41;5044553;28;20056;-68
2022/05/01 10:11:29;;;;;;;3.40;1.45;;;;;;;23.21;30.93;95268.69;5078806;28;20118;-69
2022/05/01 10:13:56;;;;;;;11.18;1.73;;;;;;;23.56;30.55;95266.25;5054542;28;20049;-69
2022/05/01 10:16:25;;;;;;;3.20;2.22;;;;;;;23.33;31.59;95265.47;5067295;28;20139;-69
2022/05/01 10:18:57;;;;;;;3.90;2.45;;;;;;;23.29;31.66;95259.97;5050007;28;20159;-69
2022/05/01 10:21:47;;;;;;;1.75;1.42;;;;;;;23.38;30.49;95253.94;5056087;28;20042;-69
2022/05/01 10:24:15;;;;;;;2.85;1.52;;;;;;;23.50;30.31;95261.38;5071937;28;20041;-69
2022/05/01 10:27:06;;;;;;;4.18;2.10;;;;;;;23.58;29.79;95260.66;5062391;28;20053;-69
2022/05/01 10:29:40;;;;;;;2.90;1.60;;;;;;;23.65;29.12;95261.78;5067158;28;20048;-68
2022/05/01 10:32:30;;;;;;;2.85;1.67;;;;;;;23.64;28.76;95259.44;5071868;28;20043;-68
2022/05/01 10:36:01;;;;;;;2.47;2.00;;;;;;;23.32;28.99;95258.59;5064451;28;20044;-68
2022/05/01 10:39:05;;;;;;;4.35;2.45;;;;;;;23.29;29.77;95245.91;5011201;28;20057;-69
2022/05/01 10:41:33;;;;;;;17.77;8.52;;;;;;;23.12;29.88;95253.72;4988123;28;20041;-67
2022/05/01 10:44:02;;;;;;;3.47;2.20;;;;;;;22.75;30.20;95244.97;5057382;28;20061;-67
2022/05/01 10:46:31;;;;;;;3.42;1.52;;;;;;;22.80;29.96;95247.50;5082329;28;20063;-68
2022/05/01 10:49:04;;;;;;;13.80;7.72;;;;;;;22.66;30.64;95243.00;5075817;28;20039;-67
2022/05/01 10:51:31;;;;;;;11.18;5.07;;;;;;;22.47;30.41;95244.97;5078651;28;20036;-68
2022/05/01 10:54:10;;;;;;;3.88;2.75;;;;;;;22.61;31.28;95243.09;5081134;28;20060;-68
2022/05/01 10:56:50;;;;;;;;;;;;;;;22.63;31.37;95238.25;5074923;28;20062;-68
2022/05/01 10:59:44;;;;;;;1.60;1.40;;;;;;;22.71;30.63;95234.94;5083437;28;20412;-68
2022/05/01 11:02:35;;;;;;;4.28;1.90;;;;;;;22.86;30.04;95227.72;5076329;28;20052;-70
2022/05/01 11:05:03;;;;;;;2.28;1.30;;;;;;;22.59;30.24;95232.00;5076359;28;20063;-68
2022/05/01 11:07:34;;;;;;;5.93;1.98;;;;;;;22.54;29.15;95234.75;5068875;28;20157;-68
2022/05/01 11:10:04;;;;;;;5.88;1.90;;;;;;;22.42;29.50;95226.50;5074658;28;20047;-69
2022/05/01 11:12:32;;;;;;;2.13;1.50;;;;;;;22.42;30.47;95221.19;5061940;28;20041;-69
2022/05/01 11:15:09;;;;;;;2.40;1.75;;;;;;;22.40;29.93;95228.66;5080508;28;20051;-69
2022/05/01 11:17:36;;;;;;;1.88;1.40;;;;;;;22.12;29.33;95226.00;5045932;28;20071;-69
2022/05/01 11:20:23;;;;;;;5.30;2.92;;;;;;;21.99;29.32;95224.13;5063014;28;20040;-69
2022/05/01 11:22:51;;;;;;;5.13;3.20;;;;;;;21.81;30.87;95218.59;5060975;28;20096;-69
2022/05/01 11:26:05;;;;;;;2.55;1.92;;;;;;;21.73;32.75;95222.72;5093445;28;20048;-70
2022/05/01 11:28:43;;;;;;;7.05;4.03;;;;;;;21.89;31.24;95220.56;4999888;28;20647;-70
2022/05/01 11:31:37;;;;;;;7.70;3.95;;;;;;;21.79;32.18;95219.97;5077292;28;20060;-70
2022/05/01 11:34:16;;;;;;;4.78;1.73;;;;;;;21.84;32.31;95218.03;5057983;28;20070;-69
2022/05/01 11:37:06;;;;;;;2.17;1.42;;;;;;;21.84;31.92;95217.22;5056244;28;20057;-69
2022/05/01 11:39:49;;;;;;;6.88;4.05;;;;;;;21.81;32.76;95213.31;5042560;28;20041;-69
2022/05/01 11:42:25;;;;;;;5.53;3.28;;;;;;;21.81;31.70;95208.00;5054572;28;20040;-69
2022/05/01 11:44:54;;;;;;;5.15;3.10;;;;;;;21.78;32.33;95208.56;5078330;28;20046;-70
2022/05/01 11:47:23;;;;;;;2.83;2.05;;;;;;;22.01;30.53;95200.75;5062751;28;20079;-70
2022/05/01 11:49:52;;;;;;;3.63;2.55;;;;;;;21.92;32.17;95204.06;5053182;28;20051;-68
2022/05/01 11:52:22;;;;;;;7.13;1.70;;;;;;;22.07;31.22;95204.88;5061404;28;20049;-67
2022/05/01 11:54:53;;;;;;;2.00;1.23;;;;;;;21.87;31.46;95206.03;5069274;28;20040;-68
2022/05/01 12:03:08;;;;;;;2.55;2.03;;;;;;;22.06;31.43;95187.41;5061836;28;20525;-68
2022/05/01 12:05:43;;;;;;;2.03;1.40;;;;;;;22.10;31.39;95191.03;5058217;28;20045;-68
2022/05/01 12:08:11;;;;;;;2.25;1.45;;;;;;;22.21;30.58;95194.25;5044814;28;20045;-67
2022/05/01 12:10:43;;;;;;;3.85;2.30;;;;;;;22.00;31.17;95188.56;5072583;28;20129;-68
2022/05/01 12:13:24;;;;;;;5.38;3.13;;;;;;;22.14;30.69;95178.75;5079253;28;20097;-68
2022/05/01 12:15:52;;;;;;;4.95;1.90;;;;;;;22.07;30.62;95173.03;5078972;28;20051;-68
2022/05/01 12:18:20;;;;;;;2.25;1.58;;;;;;;22.03;30.71;95172.06;5076960;28;20101;-68
2022/05/01 12:20:47;;;;;;;1.70;1.20;;;;;;;21.99;30.43;95171.09;5099346;28;20099;-67